M I D A S
Marine Information and Data Acquisition System
Tripno 447 of the Zeeleeuw from 2003-03-18 07:55:48 to 2003-03-18 14:00:53
Back to CruiseResearch ActivitiesStationsMapUnderway DataData graphs

EquipmentUnitsComment
TimeDGPSUTC
LatitudeDGPSDM.mWGS84
LongitudeDGPSDM.mWGS84
TemperatureSBE03/SBE38deg celciusITS90
ConductivitySBE21S/mITS90
SalinitySBE21 Practical Salinity Units
ChlorophylAChelsea fluorimeterg/lCalibrated in Aceton
Missing or incorrect values are displayed as -999
Sea surface data collected by the RV Zeeleeuw from 2003-03-18 07:55:48 to 2003-03-18 14:00:53
Time Latitude Longitude Temperature Conductivity Salinity ChlorophylA
2003-03-18 07:56:52 51°13.68 2°55.914 8.075087 2.702897 26.184884 15.365554
2003-03-18 07:57:54 51°13.685 2°55.872 7.721693 2.614439 25.210319 15.197007
2003-03-18 07:58:54 51°13.685 2°55.781 8.405306 2.743293 26.650297 22.141144
2003-03-18 07:59:53 51°13.687 2°55.746 8.054646 2.695218 26.132919 24.770477
2003-03-18 08:00:53 51°13.725 2°55.741 7.953648 2.556178 24.613344 24.298546
2003-03-18 08:01:53 51°13.813 2°55.649 7.651451 2.516115 24.168521 23.219845
2003-03-18 08:02:52 51°13.957 2°55.544 8.320936 2.408458 22.986939 24.06258
2003-03-18 08:03:53 51°14.107 2°55.433 7.65291 2.628112 25.386116 21.332118
2003-03-18 08:04:53 51°14.242 2°55.297 8.025108 2.611705 25.215743 18.3994
2003-03-18 08:05:53 51°14.339 2°55.095 7.744037 2.615492 25.315667 24.298546
2003-03-18 08:06:53 51°14.408 2°54.813 8.082141 2.624642 25.481572 23.388392
2003-03-18 08:07:53 51°14.488 2°54.502 7.151511 2.864713 28.218118 18.534238
2003-03-18 08:08:52 51°14.652 2°54.289 7.355103 3.011109 29.913674 17.624084
2003-03-18 08:09:53 51°14.849 2°54.119 8.011664 3.03753 30.244269 18.3994
2003-03-18 08:10:53 51°15.041 2°53.96 6.879616 3.037004 30.257606 23.658067
2003-03-18 08:11:52 51°15.231 2°53.801 7.404972 3.057637 30.491036 20.320836
2003-03-18 08:12:52 51°15.426 2°53.628 7.50552 3.080375 30.746473 16.882477
2003-03-18 08:13:53 51°15.625 2°53.444 7.571052 3.100589 30.997904 14.320563
2003-03-18 08:14:53 51°15.827 2°53.307 7.340394 3.090693 30.892427 16.781349
2003-03-18 08:15:53 51°16.035 2°53.196 7.793168 3.066059 30.647496 16.848768
2003-03-18 08:16:53 51°16.244 2°53.08 7.492064 3.100694 31.01243 12.432836
2003-03-18 08:17:53 51°16.453 2°52.961 7.143913 3.136279 31.392857 14.387982
2003-03-18 08:18:53 51°16.66 2°52.847 7.095213 3.139227 31.423916 15.095879
2003-03-18 08:19:53 51°16.863 2°52.736 7.46134 3.119223 31.207195 15.837486
2003-03-18 08:20:53 51°17.066 2°52.623 7.206976 3.095009 30.938571 15.702648
2003-03-18 08:21:54 51°17.272 2°52.506 6.949137 3.080692 30.793619 15.399264
2003-03-18 08:22:54 51°17.48 2°52.411 7.624354 3.069428 30.682388 15.938614
2003-03-18 08:23:54 51°17.687 2°52.322 7.336386 3.057532 30.55252 16.343127
2003-03-18 08:24:53 51°17.891 2°52.233 6.937432 3.065217 30.646743 15.60152
2003-03-18 08:25:54 51°18.103 2°52.137 7.263224 3.071744 30.717333 15.264426
2003-03-18 08:26:54 51°18.312 2°52.034 7.664193 3.073217 30.727389 14.657657
2003-03-18 08:27:54 51°18.521 2°51.927 6.860463 3.073112 30.727785 14.118306
2003-03-18 08:28:54 51°18.728 2°51.818 7.112824 3.071112 30.702559 14.522819
2003-03-18 08:29:52 51°18.928 2°51.711 7.689668 3.055953 30.53508 13.174443
2003-03-18 08:30:54 51°19.14 2°51.591 7.12381 3.044058 30.433081 13.073315
2003-03-18 08:31:54 51°19.344 2°51.474 7.498744 3.043322 30.46517 12.365418
2003-03-18 08:32:53 51°19.547 2°51.361 7.058161 3.032164 30.3572 10.848494
2003-03-18 08:33:53 51°19.754 2°51.248 6.960397 3.022585 30.255103 9.736084
2003-03-18 08:34:53 51°19.962 2°51.144 6.954202 3.029427 30.337731 9.533828
2003-03-18 08:35:53 51°20.173 2°51.033 7.225339 3.04069 30.473256 10.106888
2003-03-18 08:36:53 51°20.384 2°50.92 7.587754 3.039533 30.465087 9.196734
2003-03-18 08:37:53 51°20.597 2°50.802 7.743552 3.051533 30.598046 8.724802
2003-03-18 08:38:54 51°20.813 2°50.68 7.16891 3.042796 30.508227 7.983195
2003-03-18 08:39:53 51°21.017 2°50.555 7.033808 3.038164 30.468553 7.275298
2003-03-18 08:40:54 51°21.231 2°50.422 7.241103 3.035743 30.46657 6.735947
2003-03-18 08:41:54 51°21.445 2°50.297 6.959954 3.036165 30.49224 6.668529
2003-03-18 08:42:54 51°21.657 2°50.185 6.992051 3.073009 30.895194 6.432563
2003-03-18 08:43:54 51°21.862 2°50.07 7.39755 3.119962 31.382444 6.129178
2003-03-18 08:44:54 51°22.07 2°49.963 7.376208 3.130596 31.504015 6.196597
2003-03-18 08:45:53 51°22.274 2°49.853 7.143668 3.129017 31.509734 6.297725
2003-03-18 08:46:53 51°22.486 2°49.752 7.201441 3.146494 31.687565 6.702238
2003-03-18 08:47:54 51°22.699 2°49.652 7.290327 3.159971 31.823206 7.17417
2003-03-18 08:48:54 51°22.904 2°49.555 7.221373 3.164603 31.86673 7.410136
2003-03-18 08:49:54 51°23.108 2°49.453 7.393986 3.172816 31.946079 7.646101
2003-03-18 08:50:54 51°23.313 2°49.347 7.021578 3.173869 31.952118 7.106751
2003-03-18 08:51:54 51°23.518 2°49.237 7.559948 3.175343 31.988105 7.309007
2003-03-18 08:52:54 51°23.725 2°49.149 7.186893 3.17071 31.955175 6.02805
2003-03-18 08:53:54 51°23.934 2°49.075 7.457144 3.164393 31.892835 5.45499
2003-03-18 08:54:54 51°24.144 2°49.014 7.171361 3.168394 31.943183 4.645965
2003-03-18 08:55:54 51°24.354 2°48.964 6.995049 3.176291 32.039512 4.747093
2003-03-18 08:56:53 51°24.562 2°48.918 7.467534 3.182398 32.121665 4.544836
2003-03-18 08:57:54 51°24.778 2°48.871 7.330129 3.185241 32.165762 4.477418
2003-03-18 08:58:54 51°24.993 2°48.83 7.293947 3.191454 32.250072 4.645965
2003-03-18 08:59:54 51°25.207 2°48.788 7.000896 3.19556 32.283651 4.88193
2003-03-18 09:00:54 51°25.415 2°48.689 7.314485 3.206195 32.370409 5.724665
2003-03-18 09:01:53 51°25.611 2°48.538 6.985712 3.210512 32.387278 5.084187
2003-03-18 09:02:54 51°25.794 2°48.406 7.294583 3.227044 32.542206 6.398853
2003-03-18 09:03:54 51°25.92 2°48.365 7.38583 3.228939 32.541001 6.297725
2003-03-18 09:04:54 51°25.973 2°48.435 7.344206 3.234415 32.59634 5.522409
2003-03-18 09:05:54 51°25.993 2°48.465 7.027767 3.226728 32.512173 5.353862
2003-03-18 09:06:54 51°25.989 2°48.474 7.023445 3.233783 32.590944 5.219024
2003-03-18 09:07:52 51°25.987 2°48.473 6.908358 3.235047 32.603396 5.252734
2003-03-18 09:08:54 51°25.984 2°48.465 7.500548 3.234836 32.594407 5.353862
2003-03-18 09:09:54 51°25.98 2°48.456 7.630339 3.227254 32.513085 5.724665
2003-03-18 09:10:53 51°25.977 2°48.446 7.706824 3.230519 32.549524 5.623537
2003-03-18 09:11:54 51°25.975 2°48.434 7.431088 3.229255 32.536246 5.623537
2003-03-18 09:12:54 51°25.984 2°48.427 7.388419 3.234204 32.589841 5.792084
2003-03-18 09:13:54 51°25.989 2°48.416 7.193555 3.229044 32.532239 5.724665
2003-03-18 09:14:54 51°25.986 2°48.403 7.070874 3.228097 32.522488 5.353862
2003-03-18 09:15:54 51°25.979 2°48.395 7.625279 3.234941 32.598901 5.589828
2003-03-18 09:16:54 51°25.971 2°48.398 7.342007 3.234731 32.602358 5.758375
2003-03-18 09:17:53 51°25.97 2°48.398 7.018729 3.23452 32.600835 5.758375
2003-03-18 09:18:54 51°25.97 2°48.4 8.338936 3.233888 32.59295 5.859503
2003-03-18 09:19:54 51°25.973 2°48.397 7.34489 3.233783 32.590944 5.690956
2003-03-18 09:20:54 51°25.977 2°48.396 7.026588 3.233783 32.587627 5.320153
2003-03-18 09:21:54 51°25.979 2°48.399 7.264301 3.233678 32.590598 5.185315
2003-03-18 09:22:54 51°25.981 2°48.403 6.983795 3.233046 32.582713 5.117896
2003-03-18 09:23:53 51°25.982 2°48.406 7.383632 3.233257 32.585894 5.117896
2003-03-18 09:24:52 51°25.977 2°48.405 7.456168 3.233467 32.591565 4.983059
2003-03-18 09:25:54 51°25.97 2°48.401 7.301918 3.232835 32.585338 5.151606
2003-03-18 09:26:54 51°25.966 2°48.39 7.136608 3.233467 32.590735 5.185315
2003-03-18 09:27:54 51°25.959 2°48.38 7.898245 3.233362 32.592048 5.556118
2003-03-18 09:28:54 51°25.952 2°48.366 7.46051 3.233257 32.590872 5.45499
2003-03-18 09:29:54 51°25.958 2°48.363 7.015831 3.232625 32.582986 5.084187
2003-03-18 09:30:54 51°25.994 2°48.414 7.618856 3.232309 32.581947 5.286443
2003-03-18 09:31:54 51°26.011 2°48.454 7.889621 3.232941 32.590663 5.084187
2003-03-18 09:32:53 51°26.018 2°48.471 6.967869 3.232204 32.583259 4.780802
2003-03-18 09:33:54 51°26.022 2°48.475 5.825721 3.23252 32.583469 6.499982
2003-03-18 09:34:53 51°26.02 2°48.47 5.820666 3.230835 32.570458 4.645965
2003-03-18 09:35:54 51°26.018 2°48.457 5.817913 3.230308 32.570382 4.612255
2003-03-18 09:36:54 51°26.015 2°48.444 5.819965 3.230835 32.576264 4.645965
2003-03-18 09:37:54 51°26.011 2°48.434 5.855696 3.230624 32.572252 4.91564
2003-03-18 09:38:54 51°26.007 2°48.427 5.811355 3.230308 32.574531 5.690956
2003-03-18 09:39:54 51°26.005 2°48.423 5.816862 3.230203 32.574184 5.421281
2003-03-18 09:40:53 51°26.003 2°48.418 5.867551 3.231256 32.570186 4.91564
2003-03-18 09:41:54 51°26.002 2°48.408 5.820266 3.23094 32.570804 4.747093
2003-03-18 09:42:54 51°26 2°48.402 5.812606 3.23094 32.577441 4.949349
2003-03-18 09:43:54 51°25.995 2°48.398 5.820316 3.230414 32.574048 5.117896
2003-03-18 09:44:54 51°25.991 2°48.393 5.815059 3.231045 32.575298 5.45499
2003-03-18 09:45:54 51°25.989 2°48.383 5.813357 3.23073 32.577577 5.286443
2003-03-18 09:46:53 51°25.987 2°48.374 5.851093 3.230203 32.572524 5.4887
2003-03-18 09:47:54 51°26.015 2°48.42 5.812456 3.230414 32.575707 5.657247
2003-03-18 09:48:54 51°26.018 2°48.524 5.819865 3.230519 32.575224 3.971777
2003-03-18 09:49:54 51°26.013 2°48.557 5.810704 3.230519 32.571076 4.275161
2003-03-18 09:50:53 51°25.996 2°48.557 5.809052 3.229992 32.571001 4.91564
2003-03-18 09:51:54 51°25.983 2°48.556 5.810153 3.229677 32.566642 4.780802
2003-03-18 09:52:54 51°25.975 2°48.548 5.809653 3.229782 32.569478 4.679674
2003-03-18 09:53:54 51°25.974 2°48.529 5.809452 3.230098 32.570518 4.848221
2003-03-18 09:54:54 51°25.975 2°48.508 5.808952 3.229677 32.567472 5.724665
2003-03-18 09:55:54 51°25.975 2°48.488 5.813458 3.229677 32.564154 5.286443
2003-03-18 09:56:54 51°25.973 2°48.474 5.811755 3.229466 32.565119 5.690956
2003-03-18 09:57:54 51°25.967 2°48.461 5.813007 3.229677 32.564154 5.387571
2003-03-18 09:58:54 51°25.963 2°48.448 5.813708 3.229782 32.56616 5.387571
2003-03-18 09:59:54 51°25.96 2°48.433 5.808201 3.229992 32.569342 5.792084
2003-03-18 10:00:54 51°25.957 2°48.422 5.809452 3.229782 32.567819 5.859503
2003-03-18 10:01:54 51°25.952 2°48.412 5.81516 3.229887 32.568165 5.623537
2003-03-18 10:02:53 51°25.953 2°48.408 5.809202 3.230414 32.571559 5.758375
2003-03-18 10:03:54 51°26.008 2°48.461 5.808752 3.230308 32.572042 5.252734
2003-03-18 10:04:54 51°26.04 2°48.486 5.8073 3.229992 32.568512 3.668392
2003-03-18 10:05:54 51°26.038 2°48.494 5.812506 3.229992 32.571001 4.174033
2003-03-18 10:06:54 51°26.035 2°48.497 5.810554 3.231151 32.573157 5.4887
2003-03-18 10:07:53 51°26.034 2°48.499 5.801291 3.229466 32.590024 5.556118
2003-03-18 10:08:54 51°26.029 2°48.497 5.811805 3.229255 32.570233 5.353862
2003-03-18 10:09:54 51°26.024 2°48.492 5.80745 3.230519 32.573565 5.016768
2003-03-18 10:10:54 51°26.017 2°48.486 5.816661 3.22915 32.558272 5.286443
2003-03-18 10:11:54 51°26.011 2°48.474 5.802543 3.230414 32.575707 5.320153
2003-03-18 10:12:54 51°26.004 2°48.461 5.809953 3.229782 32.570307 5.724665
2003-03-18 10:13:54 51°25.994 2°48.446 5.818263 3.230308 32.567894 5.724665
2003-03-18 10:14:54 51°25.986 2°48.433 5.80024 3.230835 32.575435 5.893212
2003-03-18 10:15:54 51°25.979 2°48.422 5.806749 3.229782 32.574456 6.230306
2003-03-18 10:16:54 51°25.972 2°48.413 5.810454 3.230203 32.573354 5.758375
2003-03-18 10:17:54 51°25.967 2°48.406 5.810103 3.230098 32.571348 5.758375
2003-03-18 10:18:54 51°25.963 2°48.395 5.808501 3.23094 32.577441 5.792084
2003-03-18 10:19:54 51°25.959 2°48.389 5.814309 3.23073 32.577577 5.859503
2003-03-18 10:20:54 51°25.955 2°48.383 5.814759 3.231151 32.578134 5.690956
2003-03-18 10:21:54 51°25.951 2°48.387 5.812657 3.231361 32.576338 5.421281
2003-03-18 10:22:54 51°25.941 2°48.386 5.811755 3.23094 32.572463 5.623537
2003-03-18 10:23:54 51°25.931 2°48.392 5.821267 3.230835 32.577094 5.657247
2003-03-18 10:24:53 51°25.955 2°48.463 5.818013 3.231782 32.574408 5.657247
2003-03-18 10:25:54 51°26.032 2°48.472 5.806999 3.230203 32.569206 3.971777
2003-03-18 10:26:54 51°26.063 2°48.477 5.792378 3.230835 32.578753 3.76952
2003-03-18 10:27:54 51°26.061 2°48.477 5.830676 3.22894 32.571682 5.016768
2003-03-18 10:28:54 51°26.059 2°48.484 5.839384 3.229361 32.572239 5.45499
2003-03-18 10:29:54 51°26.056 2°48.491 5.811805 3.230624 32.575571 5.151606
2003-03-18 10:30:54 51°26.055 2°48.492 5.825621 3.230624 32.573911 5.185315
2003-03-18 10:31:54 51°26.069 2°48.506 5.839384 3.229782 32.562013 4.848221
2003-03-18 10:32:54 51°26.078 2°48.606 5.790325 3.229677 32.57577 3.971777
2003-03-18 10:33:54 51°26.002 2°48.69 5.83403 3.228202 32.560955 3.668392
2003-03-18 10:34:54 51°25.887 2°48.686 5.881955 3.229466 32.573416 4.275161
2003-03-18 10:35:54 51°25.719 2°48.631 5.811405 3.229887 32.571484 4.241452
2003-03-18 10:36:54 51°25.523 2°48.487 5.823519 3.228834 32.549769 4.241452
2003-03-18 10:37:54 51°25.314 2°48.301 5.831027 3.229782 32.552065 4.376289
2003-03-18 10:38:54 51°25.107 2°48.112 5.848941 3.230203 32.543513 3.870648
2003-03-18 10:39:54 51°24.903 2°47.921 5.853394 3.230834 32.531526 3.80323
2003-03-18 10:40:54 51°24.699 2°47.731 5.849141 3.23094 32.537665 3.904358
2003-03-18 10:41:54 51°24.493 2°47.539 5.844888 3.228518 32.513951 3.668392
2003-03-18 10:42:54 51°24.292 2°47.348 5.84649 3.226622 32.495283 3.76952
2003-03-18 10:43:54 51°24.094 2°47.139 5.847741 3.227044 32.504117 3.938067
2003-03-18 10:44:54 51°23.905 2°46.917 5.854695 3.227465 32.501375 3.80323
2003-03-18 10:45:54 51°23.713 2°46.696 5.849842 3.226201 32.486451 3.836939
2003-03-18 10:46:54 51°23.518 2°46.476 5.837833 3.224411 32.467308 3.80323
2003-03-18 10:47:54 51°23.329 2°46.25 5.82447 3.218304 32.41073 3.702101
2003-03-18 10:48:54 51°23.181 2°45.969 5.830927 3.212512 32.355185 3.80323
2003-03-18 10:49:53 51°23.043 2°45.681 5.851493 3.213144 32.354822 3.263879
2003-03-18 10:50:54 51°22.895 2°45.389 5.860148 3.216724 32.375809 3.23017
2003-03-18 10:51:54 51°22.732 2°45.121 5.93564 3.217671 32.375672 3.23017
2003-03-18 10:52:54 51°22.542 2°44.906 5.879154 3.219672 32.411157 3.938067
2003-03-18 10:53:54 51°22.336 2°44.734 5.828424 3.215882 32.389482 4.34258
2003-03-18 10:54:54 51°22.109 2°44.639 5.83428 3.214618 32.372913 4.275161
2003-03-18 10:55:54 51°21.885 2°44.538 5.895356 3.213144 32.345768 4.679674
2003-03-18 10:56:54 51°21.669 2°44.396 5.858347 3.212091 32.322515 4.983059
2003-03-18 10:57:54 51°21.454 2°44.251 5.856246 3.212933 32.326973 4.91564
2003-03-18 10:58:54 51°21.244 2°44.105 5.873153 3.212196 32.326155 5.724665
2003-03-18 10:59:54 51°21.035 2°43.956 5.914052 3.214407 32.31711 5.45499
2003-03-18 11:00:54 51°20.828 2°43.809 6.02716 3.220303 32.347456 5.690956
2003-03-18 11:01:54 51°20.621 2°43.661 5.970157 3.225042 32.37883 6.533691
2003-03-18 11:02:54 51°20.414 2°43.514 6.014386 3.228517 32.402694 6.803366
2003-03-18 11:03:54 51°20.213 2°43.349 5.957271 3.186292 31.939329 4.409999
2003-03-18 11:04:54 51°20.011 2°43.185 5.955723 3.166076 31.725512 4.578546
2003-03-18 11:05:54 51°19.811 2°43.025 5.957122 3.170077 31.765064 4.308871
2003-03-18 11:06:54 51°19.611 2°42.865 5.971555 3.172709 31.787012 4.308871
2003-03-18 11:07:54 51°19.41 2°42.702 5.95892 3.174393 31.804892 4.612255
2003-03-18 11:08:54 51°19.211 2°42.541 5.960168 3.169761 31.75673 4.578546
2003-03-18 11:09:54 51°19.014 2°42.379 5.986135 3.16418 31.687622 4.747093
2003-03-18 11:10:54 51°18.818 2°42.218 6.096473 3.156388 31.5565 4.544836
2003-03-18 11:11:53 51°18.627 2°42.064 6.049359 3.143543 31.42236 5.690956
2003-03-18 11:12:54 51°18.428 2°41.904 6.00141 3.137858 31.369006 5.859503
2003-03-18 11:13:54 51°18.232 2°41.746 5.985586 3.137542 31.368688 5.589828
2003-03-18 11:14:54 51°18.039 2°41.59 5.984138 3.140806 31.411953 5.825794
2003-03-18 11:15:54 51°17.843 2°41.439 5.974751 3.148808 31.506906 5.657247
2003-03-18 11:16:54 51°17.648 2°41.289 5.970157 3.154704 31.579403 6.02805
2003-03-18 11:17:54 51°17.454 2°41.136 5.976449 3.163864 31.67449 6.264016
2003-03-18 11:18:54 51°17.257 2°40.98 5.973652 3.161969 31.650283 5.421281
2003-03-18 11:19:54 51°17.061 2°40.825 5.972753 3.162074 31.660269 5.994341
2003-03-18 11:20:54 51°16.867 2°40.673 6.02222 3.187976 31.957219 8.151742
2003-03-18 11:21:54 51°16.673 2°40.516 5.997816 3.169129 31.719982 5.758375
2003-03-18 11:22:54 51°16.467 2°40.39 5.986684 3.168497 31.707363 5.825794
2003-03-18 11:23:54 51°16.26 2°40.265 5.995969 3.170603 31.737922 6.5674
2003-03-18 11:24:54 51°16.053 2°40.142 6.033446 3.174288 31.777152 7.106751
2003-03-18 11:25:54 51°15.844 2°40.019 5.991427 3.175973 31.795823 6.735947
2003-03-18 11:26:53 51°15.639 2°39.899 6.006351 3.179237 31.83039 7.073042
2003-03-18 11:27:54 51°15.43 2°39.779 6.019426 3.189555 31.931053 8.118033
2003-03-18 11:28:54 51°15.225 2°39.658 6.075288 3.195031 31.980426 8.994477
2003-03-18 11:29:54 51°15.016 2°39.579 6.060779 3.200716 32.024015 8.960768
2003-03-18 11:30:54 51°14.805 2°39.5 6.132895 3.208614 32.085578 10.443982
2003-03-18 11:31:54 51°14.594 2°39.421 6.161977 3.220407 32.18209 10.376563
2003-03-18 11:32:54 51°14.384 2°39.35 6.166607 3.231569 32.291828 14.050888
2003-03-18 11:33:54 51°14.177 2°39.264 6.117651 3.236413 32.338935 15.06217
2003-03-18 11:34:54 51°13.98 2°39.131 6.157097 3.237887 32.365049 17.522956
2003-03-18 11:35:54 51°13.791 2°38.97 6.117252 3.238519 32.374497 17.961178
2003-03-18 11:36:54 51°13.604 2°38.799 6.122782 3.24073 32.390004 16.107161
2003-03-18 11:37:54 51°13.415 2°38.623 6.196868 3.244416 32.419377 14.691366
2003-03-18 11:38:54 51°13.227 2°38.451 6.28334 3.251787 32.456828 14.590238
2003-03-18 11:39:54 51°13.041 2°38.279 6.306145 3.264423 32.51317 16.983606
2003-03-18 11:40:54 51°12.852 2°38.108 6.363939 3.267476 32.505272 18.770204
2003-03-18 11:41:54 51°12.666 2°37.936 6.415036 3.269161 32.457952 22.747913
2003-03-18 11:42:54 51°12.48 2°37.765 6.436702 3.270003 32.434774 23.017589
2003-03-18 11:43:54 51°12.291 2°37.597 6.469312 3.272635 32.448315 25.410956
2003-03-18 11:44:54 51°12.105 2°37.431 6.543687 3.282745 32.522898 26.725623
2003-03-18 11:45:54 51°11.921 2°37.265 6.556948 3.289274 32.55483 27.298683
2003-03-18 11:46:54 51°11.732 2°37.1 6.59993 3.299384 32.619473 28.276255
2003-03-18 11:47:54 51°11.545 2°36.929 6.645946 3.309388 32.686082 31.782033
2003-03-18 11:48:54 51°11.36 2°36.759 6.676819 3.316655 32.732352 33.298956
2003-03-18 11:49:54 51°11.172 2°36.591 6.709997 3.324133 32.783298 30.568494
2003-03-18 11:50:54 51°10.986 2°36.429 6.756575 3.333611 32.847921 34.377657
2003-03-18 11:51:54 51°10.798 2°36.265 6.879271 3.350357 32.991004 43.142101
2003-03-18 11:52:54 51°10.615 2°36.096 6.831404 3.361837 33.072306 42.501623
2003-03-18 11:53:54 51°10.429 2°35.929 6.837808 3.370685 33.15335 42.231947
2003-03-18 11:54:54 51°10.216 2°35.914 6.856622 3.37395 33.178349 32.961862
2003-03-18 11:55:54 51°10.016 2°36.1 6.926611 3.384904 33.284786 43.748871
2003-03-18 11:56:54 51°9.838 2°36.35 6.870508 3.376688 33.158346 46.715298
2003-03-18 11:57:54 51°9.671 2°36.633 6.934088 3.370474 33.122446 47.827708
2003-03-18 11:58:54 51°9.522 2°36.941 6.931186 3.366893 33.086659 44.692734
2003-03-18 11:59:54 51°9.369 2°37.222 6.880256 3.355728 32.939772 50.55817
2003-03-18 12:00:54 51°9.241 2°37.303 6.807653 3.343721 32.845455 56.693281
2003-03-18 12:01:54 51°9.176 2°37.241 6.766439 3.33024 32.738971 47.15352
2003-03-18 12:02:54 51°9.123 2°37.228 6.760817 3.323078 32.685109 36.939571
2003-03-18 12:03:53 51°9.102 2°37.202 6.757956 3.320235 32.657321 41.490341
2003-03-18 12:04:53 51°9.096 2°37.188 6.754306 3.317602 32.635056 40.445349
2003-03-18 12:05:53 51°9.096 2°37.182 6.757562 3.317286 32.63403 41.490341
2003-03-18 12:06:54 51°9.099 2°37.182 6.766193 3.317602 32.631829 41.760016
2003-03-18 12:07:54 51°9.103 2°37.18 6.776154 3.318865 32.639161 41.793725
2003-03-18 12:08:54 51°9.107 2°37.181 6.816179 3.319603 32.640748 40.479059
2003-03-18 12:09:53 51°9.111 2°37.181 6.771765 3.320235 32.646025 39.804871
2003-03-18 12:10:53 51°9.114 2°37.182 6.772307 3.319919 32.64984 41.254375
2003-03-18 12:11:54 51°9.119 2°37.185 6.773096 3.320024 32.650182 42.366785
2003-03-18 12:12:53 51°9.125 2°37.184 6.774822 3.320866 32.652109 41.962272
2003-03-18 12:13:53 51°9.13 2°37.186 6.778816 3.320656 32.656267 42.400494
2003-03-18 12:14:54 51°9.135 2°37.188 6.787543 3.321709 32.658876 41.288084
2003-03-18 12:15:54 51°9.14 2°37.185 6.79124 3.322657 32.665176 40.209383
2003-03-18 12:16:54 51°9.143 2°37.184 6.908358 3.323078 32.668963 40.344221
2003-03-18 12:17:53 51°9.148 2°37.179 6.834655 3.323605 32.67309 41.254375
2003-03-18 12:18:54 51°9.15 2°37.183 6.798338 3.324237 32.673524 40.243093
2003-03-18 12:19:54 51°9.156 2°37.187 6.795874 3.323815 32.673772 40.108255
2003-03-18 12:20:54 51°9.161 2°37.197 6.7975 3.324658 32.67973 42.467913
2003-03-18 12:21:53 51°9.172 2°37.195 6.802035 3.324658 32.677309 40.310512
2003-03-18 12:22:54 51°9.241 2°37.211 6.840271 3.324763 32.680878 40.41164
2003-03-18 12:23:54 51°9.261 2°37.362 6.811941 3.330872 32.727274 40.479059
2003-03-18 12:24:54 51°9.183 2°37.439 6.78705 3.330661 32.728209 47.220939
2003-03-18 12:25:54 51°9.129 2°37.343 6.775118 3.320866 32.648883 39.83858
2003-03-18 12:26:54 51°9.108 2°37.242 6.779309 3.319181 32.636154 43.310648
2003-03-18 12:27:54 51°9.105 2°37.22 6.787592 3.320129 32.641651 47.18723
2003-03-18 12:28:53 51°9.105 2°37.206 6.78843 3.321604 32.648049 42.467913
2003-03-18 12:29:53 51°9.099 2°37.188 6.787099 3.32192 32.653913 44.861281
2003-03-18 12:30:54 51°9.098 2°37.192 6.791191 3.322551 32.658382 44.018546
2003-03-18 12:31:53 51°9.087 2°37.191 6.804154 3.322762 32.65342 47.760289
2003-03-18 12:32:53 51°9.079 2°37.196 6.801838 3.323394 32.660307 43.344358
2003-03-18 12:33:54 51°9.075 2°37.199 6.800359 3.322762 32.657452 44.288221
2003-03-18 12:34:53 51°9.072 2°37.202 6.810758 3.323499 32.654199 40.613896
2003-03-18 12:35:54 51°9.072 2°37.207 6.814799 3.324026 32.655907 41.962272
2003-03-18 12:36:53 51°9.073 2°37.214 6.817904 3.324552 32.656002 42.569042
2003-03-18 12:37:53 51°9.075 2°37.222 6.818002 3.324342 32.64968 46.647879
2003-03-18 12:38:54 51°9.08 2°37.229 6.823225 3.324026 32.650266 44.591606
2003-03-18 12:39:53 51°9.086 2°37.221 6.827265 3.324868 32.652999 44.35564
2003-03-18 12:40:54 51°9.09 2°37.215 6.830221 3.325184 32.655634 39.939708
2003-03-18 12:41:54 51°9.096 2°37.215 6.82155 3.325079 32.656098 43.445486
2003-03-18 12:42:53 51°9.102 2°37.218 6.830862 3.32392 32.645897 43.411777
2003-03-18 12:43:54 51°9.11 2°37.223 6.828743 3.325079 32.653682 42.838717
2003-03-18 12:44:53 51°9.117 2°37.23 6.831798 3.325921 32.65883 43.580324
2003-03-18 12:45:54 51°9.124 2°37.24 6.833473 3.325921 32.661247 44.793862
2003-03-18 12:46:54 51°9.131 2°37.248 6.87937 3.326343 32.660195 42.299366
2003-03-18 12:47:53 51°9.136 2°37.259 6.88193 3.326869 32.661097 43.142101
2003-03-18 12:48:54 51°9.143 2°37.271 6.841896 3.323499 32.626014 44.35564
2003-03-18 12:49:53 51°9.149 2°37.284 6.885917 3.32729 32.663267 41.220665
2003-03-18 12:50:54 51°9.154 2°37.296 6.851008 3.327501 32.661534 40.9847
2003-03-18 12:51:54 51°9.161 2°37.307 6.847905 3.325184 32.633094 40.9847
2003-03-18 12:52:54 51°9.166 2°37.322 6.852387 3.32571 32.638825 42.198238
2003-03-18 12:53:54 51°9.172 2°37.333 6.847856 3.327606 32.65946 40.243093
2003-03-18 12:54:54 51°9.178 2°37.344 6.857656 3.326448 32.646045 41.591469
2003-03-18 12:55:54 51°9.184 2°37.355 6.850368 3.326026 32.639046 41.793725
2003-03-18 12:56:54 51°9.19 2°37.366 6.849481 3.327396 32.657167 42.737589
2003-03-18 12:57:54 51°9.195 2°37.377 6.859085 3.327817 32.658532 42.198238
2003-03-18 12:58:54 51°9.201 2°37.386 6.856524 3.327501 32.650265 41.220665
2003-03-18 12:59:53 51°9.207 2°37.397 6.853963 3.32729 32.65441 43.614033
2003-03-18 13:00:53 51°9.211 2°37.407 6.85874 3.328027 32.65841 42.535332
2003-03-18 13:01:54 51°9.219 2°37.411 6.853471 3.326448 32.642826 42.231947
2003-03-18 13:02:54 51°9.235 2°37.413 6.858001 3.327712 32.654971 42.67017
2003-03-18 13:03:54 51°9.255 2°37.415 6.844211 3.323499 32.611538 44.153383
2003-03-18 13:04:53 51°9.276 2°37.424 6.85288 3.327712 32.662216 44.153383
2003-03-18 13:05:54 51°9.301 2°37.441 6.857459 3.328659 32.665287 43.24323
2003-03-18 13:06:54 51°9.324 2°37.459 6.853668 3.328449 32.659775 44.861281
2003-03-18 13:07:54 51°9.346 2°37.481 6.851895 3.327185 32.654874 45.569178
2003-03-18 13:08:54 51°9.374 2°37.539 6.891233 3.32887 32.67805 47.827708
2003-03-18 13:09:53 51°9.386 2°37.771 6.854357 3.329292 32.688279 43.78258
2003-03-18 13:10:54 51°9.448 2°38.092 6.882422 3.328344 32.669901 36.130546
2003-03-18 13:11:53 51°9.533 2°38.452 6.817657 3.321498 32.609859 43.614033
2003-03-18 13:12:54 51°9.618 2°38.824 6.798486 3.320866 32.626316 45.602888
2003-03-18 13:13:54 51°9.704 2°39.188 6.786359 3.317496 32.601672 47.119811
2003-03-18 13:14:54 51°9.792 2°39.552 6.763135 3.31381 32.572766 46.243366
2003-03-18 13:15:54 51°9.879 2°39.917 6.748831 3.308334 32.536391 47.692871
2003-03-18 13:16:54 51°9.968 2°40.281 6.744539 3.302541 32.483675 45.535469
2003-03-18 13:17:53 51°10.074 2°40.637 6.727123 3.299803 32.45783 46.479332
2003-03-18 13:18:53 51°10.175 2°40.992 6.729146 3.300014 32.472977 46.513042
2003-03-18 13:19:54 51°10.276 2°41.355 6.744145 3.301804 32.487687 43.681452
2003-03-18 13:20:54 51°10.369 2°41.72 6.739409 3.305069 32.518478 44.996118
2003-03-18 13:21:54 51°10.463 2°42.085 6.814109 3.306122 32.533187 43.378067
2003-03-18 13:22:54 51°10.555 2°42.449 6.73709 3.306228 32.539971 42.569042
2003-03-18 13:23:54 51°10.647 2°42.812 6.717006 3.307807 32.556405 41.894853
2003-03-18 13:24:53 51°10.739 2°43.169 6.700618 3.300435 32.496067 41.254375
2003-03-18 13:25:54 51°10.833 2°43.538 6.733389 3.295064 32.444673 39.939708
2003-03-18 13:26:54 51°10.928 2°43.902 6.730478 3.291589 32.411555 37.917144
2003-03-18 13:27:54 51°11.023 2°44.266 6.758154 3.287271 32.373247 38.625042
2003-03-18 13:28:54 51°11.116 2°44.627 6.659384 3.283375 32.343535 37.276665
2003-03-18 13:29:54 51°11.211 2°44.989 6.661212 3.276845 32.272252 32.793315
2003-03-18 13:30:54 51°11.309 2°45.353 6.591326 3.254625 32.066387 29.085281
2003-03-18 13:31:54 51°11.404 2°45.711 6.512452 3.233881 31.912086 26.455947
2003-03-18 13:32:54 51°11.52 2°46.057 6.577033 3.224509 31.843721 25.646922
2003-03-18 13:33:54 51°11.638 2°46.399 6.491851 3.221456 31.834104 26.051435
2003-03-18 13:34:53 51°11.751 2°46.727 6.489226 3.214927 31.760284 25.309828
2003-03-18 13:35:54 51°11.87 2°47.075 6.534085 3.212084 31.739463 22.983879
2003-03-18 13:36:54 51°11.986 2°47.42 6.515472 3.211873 31.718973 21.163571
2003-03-18 13:37:53 51°12.104 2°47.76 6.506312 3.212189 31.718476 21.129862
2003-03-18 13:38:54 51°12.225 2°48.111 6.488087 3.208504 31.672656 20.152289
2003-03-18 13:39:53 51°12.344 2°48.453 6.48462 3.19987 31.604261 20.455674
2003-03-18 13:40:54 51°12.465 2°48.806 6.539134 3.197342 31.573478 19.309554
2003-03-18 13:41:54 51°12.586 2°49.155 6.46847 3.201765 31.613171 18.331982
2003-03-18 13:42:53 51°12.705 2°49.495 6.42763 3.188498 31.51292 19.646648
2003-03-18 13:43:54 51°12.829 2°49.849 6.414143 3.180917 31.447246 19.00617
2003-03-18 13:44:53 51°12.947 2°50.189 6.386069 3.173125 31.382362 18.97246
2003-03-18 13:45:54 51°13.07 2°50.541 6.377139 3.168493 31.360643 18.905042
2003-03-18 13:46:53 51°13.192 2°50.874 6.375055 3.163018 31.296757 17.590375
2003-03-18 13:47:54 51°13.326 2°51.217 6.388252 3.158911 31.255702 18.264563
2003-03-18 13:48:54 51°13.46 2°51.557 6.397132 3.157121 31.226732 17.185862
2003-03-18 13:49:54 51°13.598 2°51.898 6.413647 3.158279 31.221457 16.815059
2003-03-18 13:50:54 51°13.73 2°52.24 6.40596 3.165439 31.291198 18.331982
2003-03-18 13:51:54 51°13.864 2°52.58 6.398124 3.161438 31.273207 19.275845
2003-03-18 13:52:54 51°13.994 2°52.918 6.361755 3.153752 31.202337 18.230853
2003-03-18 13:53:54 51°14.114 2°53.259 6.335297 3.140381 31.09643 16.680221
2003-03-18 13:54:54 51°14.25 2°53.558 6.346269 3.142066 31.096974 15.972324
2003-03-18 13:55:54 51°14.376 2°53.85 6.33058 3.136591 31.057241 18.534238
2003-03-18 13:56:54 51°14.449 2°54.185 6.318711 3.126905 30.977536 17.489247
2003-03-18 13:57:54 51°14.466 2°54.539 6.381455 3.121641 30.893521 16.71393
2003-03-18 13:58:54 51°14.421 2°54.874 6.307883 3.109954 30.750223 18.466819
2003-03-18 13:59:54 51°14.319 2°55.15 6.4133 3.095005 30.606719 19.242136